createdAt,value
2017-11-26T00:00:58.017Z,93964.01
2017-11-26T00:03:25.744Z,93963.08
2017-11-26T00:05:53.540Z,93972.70
2017-11-26T00:08:21.298Z,93969.42
2017-11-26T00:10:49.058Z,93967.38
2017-11-26T00:13:16.817Z,93966.80
2017-11-26T00:15:44.664Z,93971.19
2017-11-26T00:18:12.441Z,93973.57
2017-11-26T00:20:40.181Z,93968.12
2017-11-26T00:23:07.889Z,93970.34
2017-11-26T00:25:35.648Z,93976.02
2017-11-26T00:28:03.357Z,93968.44
2017-11-26T00:30:31.043Z,93957.27
2017-11-26T00:32:58.816Z,93951.24
2017-11-26T00:35:27.061Z,93958.16
2017-11-26T00:37:54.797Z,93944.69
2017-11-26T00:40:22.561Z,93943.31
2017-11-26T00:42:50.304Z,93956.56
2017-11-26T00:45:18.130Z,93955.73
2017-11-26T00:47:45.918Z,93961.14
2017-11-26T00:50:13.602Z,93970.80
2017-11-26T00:52:41.333Z,93978.41
2017-11-26T00:55:09.090Z,93979.20
2017-11-26T00:57:36.794Z,93968.09
2017-11-26T01:00:04.553Z,93979.61
2017-11-26T01:02:32.216Z,93993.47
2017-11-26T01:05:00.026Z,93991.42
2017-11-26T01:07:27.726Z,93997.32
2017-11-26T01:09:55.514Z,94000.20
2017-11-26T01:12:23.261Z,93992.67
2017-11-26T01:14:50.950Z,93986.56
2017-11-26T01:17:18.637Z,93994.63
2017-11-26T01:19:46.379Z,93988.50
2017-11-26T01:22:14.133Z,93982.48
2017-11-26T01:24:41.837Z,94004.50
2017-11-26T01:27:09.546Z,94018.98
2017-11-26T01:29:37.274Z,94033.59
2017-11-26T01:32:05.012Z,94033.33
2017-11-26T01:34:32.739Z,94026.63
2017-11-26T01:37:00.473Z,94021.77
2017-11-26T01:39:28.543Z,94028.95
2017-11-26T01:41:56.351Z,94026.91
2017-11-26T01:44:24.050Z,94027.53
2017-11-26T01:46:51.858Z,94030.45
2017-11-26T01:49:19.624Z,94025.41
2017-11-26T01:51:47.345Z,94030.28
2017-11-26T01:54:15.160Z,94035.64
2017-11-26T01:56:42.859Z,94031.34
2017-11-26T01:59:10.575Z,94034.35
2017-11-26T02:01:38.394Z,94032.45
2017-11-26T02:04:06.120Z,94035.51
2017-11-26T02:06:33.881Z,94037.48
2017-11-26T02:09:01.743Z,94035.27
2017-11-26T02:11:29.414Z,94033.94
2017-11-26T02:13:57.212Z,94028.45
2017-11-26T02:16:25.003Z,94035.31
2017-11-26T02:18:52.728Z,94032.83
2017-11-26T02:21:20.517Z,94015.56
2017-11-26T02:23:48.303Z,94000.33
2017-11-26T02:26:16.011Z,94006.17
2017-11-26T02:28:43.758Z,94010.95
2017-11-26T02:31:23.263Z,94002.45
2017-11-26T02:34:02.646Z,93998.83
2017-11-26T02:36:30.381Z,94010.78
2017-11-26T02:38:58.196Z,94017.55
2017-11-26T02:41:26.033Z,94019.04
2017-11-26T02:43:53.768Z,94023.77
2017-11-26T02:46:21.565Z,94043.55
2017-11-26T02:48:49.425Z,94044.45
2017-11-26T02:51:17.187Z,94064.66
2017-11-26T02:53:44.981Z,94073.95
2017-11-26T02:56:12.692Z,94087.59
2017-11-26T02:58:40.488Z,94099.14
2017-11-26T03:01:08.178Z,94091.73
2017-11-26T03:03:35.939Z,94093.00
2017-11-26T03:06:03.613Z,94089.19
2017-11-26T03:08:31.282Z,94095.03
2017-11-26T03:10:59.081Z,94079.41
2017-11-26T03:13:26.872Z,94066.53
2017-11-26T03:15:54.586Z,94074.24
2017-11-26T03:18:22.305Z,94071.58
2017-11-26T03:20:49.992Z,94063.16
2017-11-26T03:23:17.883Z,94060.82
2017-11-26T03:25:45.552Z,94057.91
2017-11-26T03:28:13.327Z,94062.59
2017-11-26T03:30:41.084Z,94067.50
2017-11-26T03:33:08.887Z,94073.03
2017-11-26T03:35:36.664Z,94083.52
2017-11-26T03:38:04.430Z,94095.78
2017-11-26T03:40:32.226Z,94103.77
2017-11-26T03:43:00.049Z,94105.39
2017-11-26T03:45:27.855Z,94111.41
2017-11-26T03:47:55.602Z,94115.04
2017-11-26T03:50:23.303Z,94111.98
2017-11-26T03:52:51.108Z,94114.12
2017-11-26T03:55:18.843Z,94116.91
2017-11-26T03:57:46.555Z,94121.73
2017-11-26T04:00:14.310Z,94121.14
2017-11-26T04:02:42.004Z,94124.30
2017-11-26T04:05:09.773Z,94127.86
2017-11-26T04:07:37.545Z,94117.73
2017-11-26T04:10:05.418Z,94133.68
2017-11-26T04:12:33.138Z,94136.70
2017-11-26T04:15:00.846Z,94139.13
2017-11-26T04:17:28.608Z,94143.95
2017-11-26T04:19:56.390Z,94142.58
2017-11-26T04:22:24.093Z,94150.31
2017-11-26T04:24:52.370Z,94146.41
2017-11-26T04:27:20.122Z,94141.67
2017-11-26T04:29:47.865Z,94134.74
2017-11-26T04:32:15.646Z,94136.11
2017-11-26T04:34:43.341Z,94154.00
2017-11-26T04:37:11.124Z,94165.34
2017-11-26T04:39:38.802Z,94168.57
2017-11-26T04:42:06.535Z,94178.95
2017-11-26T04:44:34.300Z,94179.27
2017-11-26T04:47:02.068Z,94183.90
2017-11-26T04:49:29.815Z,94180.25
2017-11-26T04:51:57.546Z,94188.97
2017-11-26T04:54:25.240Z,94201.31
2017-11-26T04:56:52.988Z,94221.45
2017-11-26T04:59:20.781Z,94223.86
2017-11-26T05:01:48.580Z,94237.81
2017-11-26T05:04:16.314Z,94237.85
2017-11-26T05:06:44.156Z,94233.39
2017-11-26T05:09:12.020Z,94222.75
2017-11-26T05:11:39.698Z,94227.05
2017-11-26T05:14:07.433Z,94225.31
2017-11-26T05:16:35.110Z,94232.70
2017-11-26T05:19:02.853Z,94229.35
2017-11-26T05:21:30.673Z,94219.67
2017-11-26T05:23:58.373Z,94226.98
2017-11-26T05:26:26.241Z,94232.30
2017-11-26T05:28:53.941Z,94232.27
2017-11-26T05:31:22.207Z,94234.45
2017-11-26T05:33:49.917Z,94230.82
2017-11-26T05:36:17.600Z,94231.33
2017-11-26T05:38:45.421Z,94228.72
2017-11-26T05:41:13.130Z,94229.77
2017-11-26T05:43:42.045Z,94223.34
2017-11-26T05:46:09.851Z,94224.97
2017-11-26T05:48:37.578Z,94232.88
2017-11-26T05:51:05.299Z,94236.03
2017-11-26T05:53:33.109Z,94227.12
2017-11-26T05:56:00.858Z,94232.82
2017-11-26T05:58:28.580Z,94235.94
2017-11-26T06:00:56.316Z,94234.50
2017-11-26T06:03:24.019Z,94247.52
2017-11-26T06:05:52.307Z,94258.08
2017-11-26T06:08:20.062Z,94270.80
2017-11-26T06:10:47.851Z,94282.92
2017-11-26T06:13:15.540Z,94290.95
2017-11-26T06:15:43.295Z,94285.52
2017-11-26T06:18:11.062Z,94283.23
2017-11-26T06:20:38.754Z,94277.22
2017-11-26T06:23:06.495Z,94275.31
2017-11-26T06:25:34.228Z,94278.59
2017-11-26T06:28:02.012Z,94284.84
2017-11-26T06:30:29.761Z,94288.30
2017-11-26T06:32:57.820Z,94296.94
2017-11-26T06:35:25.630Z,94297.77
2017-11-26T06:37:53.419Z,94301.11
2017-11-26T06:40:21.374Z,94301.11
2017-11-26T06:42:49.110Z,94302.94
2017-11-26T06:45:16.839Z,94293.93
2017-11-26T06:47:44.567Z,94292.57
2017-11-26T06:50:13.352Z,94298.63
2017-11-26T06:52:41.310Z,94300.55
2017-11-26T06:55:09.104Z,94315.22
2017-11-26T06:57:36.950Z,94327.39
2017-11-26T07:00:04.738Z,94322.70
2017-11-26T07:02:32.502Z,94327.90
2017-11-26T07:05:00.233Z,94335.44
2017-11-26T07:07:28.005Z,94341.02
2017-11-26T07:09:55.739Z,94344.41
2017-11-26T07:12:23.523Z,94343.41
2017-11-26T07:14:51.208Z,94348.42
2017-11-26T07:17:19.817Z,94366.36
2017-11-26T07:19:47.596Z,94367.48
2017-11-26T07:22:15.298Z,94367.20
2017-11-26T07:24:43.046Z,94376.69
2017-11-26T07:27:10.778Z,94375.11
2017-11-26T07:29:38.484Z,94381.69
2017-11-26T07:32:06.243Z,94392.44
2017-11-26T07:34:34.440Z,94398.92
2017-11-26T07:37:02.580Z,94401.05
2017-11-26T07:39:32.398Z,94409.81
2017-11-26T07:42:00.323Z,94416.84
2017-11-26T07:44:29.341Z,94415.31
2017-11-26T07:46:57.112Z,94423.22
2017-11-26T07:49:24.898Z,94424.09
2017-11-26T07:51:52.988Z,94429.03
2017-11-26T07:54:22.822Z,94423.30
2017-11-26T07:56:52.957Z,94436.20
2017-11-26T07:59:22.001Z,94444.95
2017-11-26T08:01:49.834Z,94450.00
2017-11-26T08:04:17.649Z,94446.63
2017-11-26T08:06:46.328Z,94438.72
2017-11-26T08:09:14.601Z,94447.06
2017-11-26T08:11:42.468Z,94449.23
2017-11-26T08:14:13.165Z,94449.39
2017-11-26T08:16:40.855Z,94451.63
2017-11-26T08:19:08.577Z,94463.97
2017-11-26T08:21:38.555Z,94464.45
2017-11-26T08:24:06.385Z,94466.55
2017-11-26T08:26:34.509Z,94473.99
2017-11-26T08:29:02.353Z,94477.20
2017-11-26T08:31:30.181Z,94489.23
2017-11-26T08:33:57.926Z,94486.75
2017-11-26T08:36:26.045Z,94484.31
2017-11-26T08:38:53.879Z,94487.91
2017-11-26T08:41:21.623Z,94484.07
2017-11-26T08:43:49.375Z,94492.34
2017-11-26T08:46:17.238Z,94501.06
2017-11-26T08:48:45.058Z,94498.05
2017-11-26T08:51:12.884Z,94499.89
2017-11-26T08:53:41.724Z,94509.19
2017-11-26T08:56:09.513Z,94517.70
2017-11-26T08:58:37.361Z,94511.61
2017-11-26T09:01:06.064Z,94515.41
2017-11-26T09:03:35.431Z,94526.37
2017-11-26T09:06:03.731Z,94530.04
2017-11-26T09:08:48.127Z,94521.93
2017-11-26T09:11:15.987Z,94514.87
2017-11-26T09:13:43.828Z,94516.66
2017-11-26T09:16:11.678Z,94522.33
2017-11-26T09:18:39.550Z,94520.69
2017-11-26T09:21:07.461Z,94523.16
2017-11-26T09:23:35.271Z,94515.36
2017-11-26T09:26:03.067Z,94519.79
2017-11-26T09:28:30.840Z,94512.17
2017-11-26T09:30:58.573Z,94515.38
2017-11-26T09:33:26.431Z,94523.41
2017-11-26T09:35:54.212Z,94525.59
2017-11-26T09:38:22.351Z,94524.36
2017-11-26T09:40:50.154Z,94519.54
2017-11-26T09:43:18.277Z,94523.52
2017-11-26T09:45:46.176Z,94520.79
2017-11-26T09:48:13.963Z,94521.19
2017-11-26T09:50:41.735Z,94521.91
2017-11-26T09:53:09.499Z,94522.64
2017-11-26T09:55:37.213Z,94523.95
2017-11-26T09:58:04.937Z,94518.47
2017-11-26T10:00:32.732Z,94515.63
2017-11-26T10:03:00.484Z,94523.72
2017-11-26T10:05:28.242Z,94511.66
2017-11-26T10:07:55.959Z,94513.66
2017-11-26T10:10:23.798Z,94516.46
2017-11-26T10:12:51.612Z,94516.30
2017-11-26T10:15:19.320Z,94512.45
2017-11-26T10:17:47.109Z,94520.31
2017-11-26T10:20:15.167Z,94517.27
2017-11-26T10:22:43.042Z,94524.56
2017-11-26T10:25:10.804Z,94527.69
2017-11-26T10:27:38.615Z,94514.98
2017-11-26T10:30:06.329Z,94514.34
2017-11-26T10:32:34.090Z,94515.42
2017-11-26T10:35:01.866Z,94510.12
2017-11-26T10:37:29.600Z,94512.09
2017-11-26T10:39:57.439Z,94508.25
2017-11-26T10:42:25.173Z,94524.39
2017-11-26T10:44:53.028Z,94531.22
2017-11-26T10:47:20.931Z,94529.22
2017-11-26T10:49:48.817Z,94525.53
2017-11-26T10:52:16.689Z,94521.36
2017-11-26T10:54:44.601Z,94520.58
2017-11-26T10:57:12.499Z,94523.22
2017-11-26T10:59:41.270Z,94531.23
2017-11-26T11:02:09.093Z,94539.06
2017-11-26T11:04:36.941Z,94536.91
2017-11-26T11:07:04.747Z,94538.11
2017-11-26T11:09:32.585Z,94534.58
2017-11-26T11:12:00.377Z,94536.00
2017-11-26T11:14:28.110Z,94541.67
2017-11-26T11:16:55.848Z,94535.23
2017-11-26T11:19:23.687Z,94527.39
2017-11-26T11:21:51.472Z,94542.83
2017-11-26T11:24:19.328Z,94552.63
2017-11-26T11:26:47.081Z,94548.91
2017-11-26T11:29:14.851Z,94542.68
2017-11-26T11:31:42.601Z,94553.55
2017-11-26T11:34:10.356Z,94551.52
2017-11-26T11:36:38.058Z,94556.81
2017-11-26T11:39:05.819Z,94557.05
2017-11-26T11:41:33.597Z,94564.09
2017-11-26T11:44:01.414Z,94572.81
2017-11-26T11:46:29.172Z,94578.41
2017-11-26T11:48:56.940Z,94574.01
2017-11-26T11:51:24.869Z,94578.12
2017-11-26T11:53:53.832Z,94582.20
2017-11-26T11:56:21.690Z,94572.50
2017-11-26T11:58:49.444Z,94567.90
2017-11-26T12:01:17.347Z,94579.86
2017-11-26T12:03:45.243Z,94562.33
2017-11-26T12:06:13.072Z,94570.28
2017-11-26T12:08:40.864Z,94563.50
2017-11-26T12:11:08.852Z,94564.84
2017-11-26T12:13:37.666Z,94565.72
2017-11-26T12:18:39.577Z,94578.33
2017-11-26T12:21:08.085Z,94575.98
2017-11-26T12:23:37.006Z,94576.97
2017-11-26T12:26:04.830Z,94576.05
2017-11-26T12:28:32.639Z,94587.77
2017-11-26T12:31:00.646Z,94583.61
2017-11-26T12:33:28.420Z,94587.34
2017-11-26T12:35:56.258Z,94580.80
2017-11-26T12:38:24.158Z,94578.37
2017-11-26T12:40:51.971Z,94580.05
2017-11-26T12:43:20.204Z,94581.98
2017-11-26T12:45:48.099Z,94584.95
2017-11-26T12:48:15.973Z,94586.17
2017-11-26T12:50:43.835Z,94585.15
2017-11-26T12:53:11.867Z,94593.05
2017-11-26T12:55:40.373Z,94594.04
2017-11-26T12:58:08.201Z,94590.11
2017-11-26T13:00:36.023Z,94593.72
2017-11-26T13:03:03.787Z,94592.27
2017-11-26T13:05:31.615Z,94597.98
2017-11-26T13:07:59.419Z,94603.11
2017-11-26T13:10:27.319Z,94607.01
2017-11-26T13:12:55.157Z,94612.00
2017-11-26T13:15:23.083Z,94614.63
2017-11-26T13:17:50.963Z,94615.34
2017-11-26T13:20:18.849Z,94617.69
2017-11-26T13:22:46.780Z,94618.80
2017-11-26T13:25:14.623Z,94622.50
2017-11-26T13:27:42.501Z,94627.67
2017-11-26T13:30:10.475Z,94629.44
2017-11-26T13:32:38.541Z,94625.89
2017-11-26T13:35:07.424Z,94629.95
2017-11-26T13:37:36.558Z,94631.28
2017-11-26T13:40:05.915Z,94624.30
2017-11-26T13:42:33.748Z,94639.00
2017-11-26T13:45:01.630Z,94642.66
2017-11-26T13:47:29.510Z,94652.15
2017-11-26T13:49:57.353Z,94645.91
2017-11-26T13:52:25.220Z,94641.88
2017-11-26T13:54:53.090Z,94650.83
2017-11-26T13:57:20.869Z,94658.14
2017-11-26T13:59:48.754Z,94657.69
2017-11-26T14:02:16.772Z,94651.00
2017-11-26T14:04:44.694Z,94658.77
2017-11-26T14:07:12.640Z,94654.65
2017-11-26T14:09:40.700Z,94664.95
2017-11-26T14:12:08.535Z,94658.08
2017-11-26T14:14:37.280Z,94655.17
2017-11-26T14:17:05.206Z,94658.89
2017-11-26T14:19:33.065Z,94660.59
2017-11-26T14:22:00.819Z,94664.06
2017-11-26T14:24:28.758Z,94659.84
2017-11-26T14:26:56.588Z,94661.34
2017-11-26T14:29:24.481Z,94656.30
2017-11-26T14:31:52.453Z,94665.20
2017-11-26T14:34:20.414Z,94663.44
2017-11-26T14:36:48.258Z,94657.66
2017-11-26T14:39:16.256Z,94662.90
2017-11-26T14:41:44.153Z,94662.00
2017-11-26T14:44:11.977Z,94663.20
2017-11-26T14:46:39.817Z,94644.00
2017-11-26T14:49:07.597Z,94651.55
2017-11-26T14:51:36.469Z,94643.73
2017-11-26T14:54:04.394Z,94660.13
2017-11-26T14:56:32.538Z,94647.43
2017-11-26T14:59:00.408Z,94651.66
2017-11-26T15:01:28.307Z,94649.79
2017-11-26T15:03:56.154Z,94650.22
2017-11-26T15:06:24.037Z,94651.73
2017-11-26T15:08:51.857Z,94652.76
2017-11-26T15:11:19.661Z,94655.49
2017-11-26T15:13:47.538Z,94661.50
2017-11-26T15:16:15.548Z,94670.30
2017-11-26T15:18:43.341Z,94670.31
2017-11-26T15:21:11.163Z,94673.09
2017-11-26T15:23:39.592Z,94670.69
2017-11-26T15:26:07.379Z,94675.00
2017-11-26T15:28:35.976Z,94659.48
2017-11-26T15:31:03.856Z,94664.20
2017-11-26T15:33:31.699Z,94672.75
2017-11-26T15:35:59.505Z,94677.88
2017-11-26T15:38:27.288Z,94675.61
2017-11-26T15:40:55.107Z,94674.07
2017-11-26T15:43:22.965Z,94672.48
2017-11-26T15:45:50.832Z,94666.73
2017-11-26T15:48:18.733Z,94671.86
2017-11-26T15:50:46.541Z,94679.09
2017-11-26T15:53:14.408Z,94681.73
2017-11-26T15:55:42.282Z,94682.14
2017-11-26T15:58:10.136Z,94689.16
2017-11-26T16:00:38.040Z,94683.77
2017-11-26T16:03:05.830Z,94686.19
2017-11-26T16:05:33.642Z,94692.19
2017-11-26T16:08:01.625Z,94687.91
2017-11-26T16:10:29.427Z,94693.31
2017-11-26T16:12:57.232Z,94698.18
2017-11-26T16:15:25.014Z,94694.77
2017-11-26T16:17:52.819Z,94696.31
2017-11-26T16:20:20.607Z,94697.48
2017-11-26T16:22:48.432Z,94704.76
2017-11-26T16:25:16.220Z,94701.61
2017-11-26T16:27:44.067Z,94704.36
2017-11-26T16:30:11.892Z,94699.31
2017-11-26T16:32:39.731Z,94696.53
2017-11-26T16:35:07.573Z,94698.36
2017-11-26T16:37:35.479Z,94703.22
2017-11-26T16:40:03.251Z,94709.80
2017-11-26T16:42:31.043Z,94701.87
2017-11-26T16:44:58.991Z,94698.20
2017-11-26T16:47:26.828Z,94699.22
2017-11-26T16:49:54.630Z,94697.61
2017-11-26T16:52:22.434Z,94705.17
2017-11-26T16:54:50.403Z,94721.53
2017-11-26T16:57:18.177Z,94716.63
2017-11-26T16:59:46.739Z,94717.95
2017-11-26T17:02:14.561Z,94720.91
2017-11-26T17:04:42.394Z,94713.75
2017-11-26T17:07:10.276Z,94709.22
2017-11-26T17:09:38.175Z,94717.92
2017-11-26T17:12:06.293Z,94723.05
2017-11-26T17:14:34.192Z,94720.41
2017-11-26T17:17:01.933Z,94715.04
2017-11-26T17:19:29.786Z,94720.66
2017-11-26T17:21:57.556Z,94733.96
2017-11-26T17:24:25.309Z,94735.95
2017-11-26T17:26:53.239Z,94741.85
2017-11-26T17:29:21.840Z,94733.99
2017-11-26T17:31:49.803Z,94735.97
2017-11-26T17:34:17.570Z,94749.00
2017-11-26T17:36:45.411Z,94759.61
2017-11-26T17:39:13.217Z,94759.80
2017-11-26T17:41:41.080Z,94752.52
2017-11-26T17:44:09.026Z,94757.34
2017-11-26T17:46:36.829Z,94753.73
2017-11-26T17:49:04.860Z,94763.01
2017-11-26T17:51:32.692Z,94763.97
2017-11-26T17:54:00.544Z,94760.80
2017-11-26T17:56:29.720Z,94759.26
2017-11-26T17:58:57.497Z,94756.23
2017-11-26T18:01:25.306Z,94765.37
2017-11-26T18:03:53.655Z,94767.32
2017-11-26T18:06:21.579Z,94771.29
2017-11-26T18:08:50.155Z,94775.77
2017-11-26T18:11:18.498Z,94784.74
2017-11-26T18:13:46.490Z,94774.82
2017-11-26T18:16:14.579Z,94775.35
2017-11-26T18:18:42.309Z,94780.47
2017-11-26T18:21:10.078Z,94779.12
2017-11-26T18:23:37.895Z,94771.24
2017-11-26T18:26:07.083Z,94778.47
2017-11-26T18:28:34.908Z,94781.09
2017-11-26T18:31:02.696Z,94779.51
2017-11-26T18:33:30.558Z,94778.92
2017-11-26T18:35:58.339Z,94774.66
2017-11-26T18:38:26.126Z,94785.14
2017-11-26T18:40:53.936Z,94781.33
2017-11-26T18:43:21.648Z,94794.23
2017-11-26T18:45:49.575Z,94792.41
2017-11-26T18:48:17.336Z,94799.86
2017-11-26T18:50:45.043Z,94806.74
2017-11-26T18:53:12.795Z,94809.05
2017-11-26T18:55:40.513Z,94811.81
2017-11-26T18:58:08.334Z,94814.75
2017-11-26T19:00:36.016Z,94811.00
2017-11-26T19:03:03.804Z,94810.53
2017-11-26T19:05:32.236Z,94809.98
2017-11-26T19:07:59.982Z,94819.84
2017-11-26T19:10:27.794Z,94811.48
2017-11-26T19:12:55.575Z,94816.72
2017-11-26T19:15:23.391Z,94821.23
2017-11-26T19:17:51.678Z,94824.13
2017-11-26T19:20:19.538Z,94822.46
2017-11-26T19:22:47.901Z,94823.59
2017-11-26T19:25:15.649Z,94825.28
2017-11-26T19:27:43.877Z,94820.01
2017-11-26T19:30:11.700Z,94820.64
2017-11-26T19:32:39.445Z,94820.38
2017-11-26T19:35:07.261Z,94815.52
2017-11-26T19:37:35.058Z,94818.75
2017-11-26T19:40:02.941Z,94820.64
2017-11-26T19:42:30.821Z,94817.75
2017-11-26T19:44:58.576Z,94825.92
2017-11-26T19:47:26.516Z,94827.10
2017-11-26T19:49:54.391Z,94834.30
2017-11-26T19:52:22.149Z,94836.51
2017-11-26T19:54:50.012Z,94831.39
2017-11-26T19:57:17.978Z,94820.48
2017-11-26T19:59:46.048Z,94823.05
2017-11-26T20:02:14.177Z,94822.63
2017-11-26T20:04:41.921Z,94822.11
2017-11-26T20:07:10.347Z,94819.48
2017-11-26T20:09:38.344Z,94821.22
2017-11-26T20:12:06.246Z,94824.93
2017-11-26T20:14:34.052Z,94830.52
2017-11-26T20:17:01.877Z,94833.77
2017-11-26T20:19:29.713Z,94835.51
2017-11-26T20:21:57.618Z,94835.77
2017-11-26T20:24:25.407Z,94832.84
2017-11-26T20:26:53.392Z,94835.47
2017-11-26T20:29:21.236Z,94837.61
2017-11-26T20:31:49.255Z,94828.94
2017-11-26T20:34:17.098Z,94833.50
2017-11-26T20:36:44.931Z,94830.61
2017-11-26T20:39:12.857Z,94829.72
2017-11-26T20:41:41.855Z,94830.42
2017-11-26T20:44:10.125Z,94835.45
2017-11-26T20:46:38.089Z,94833.63
2017-11-26T20:49:05.988Z,94830.20
2017-11-26T20:51:36.122Z,94832.83
2017-11-26T20:54:05.057Z,94830.70
2017-11-26T20:56:32.865Z,94832.58
2017-11-26T20:59:00.846Z,94829.89
2017-11-26T21:01:28.609Z,94831.16
2017-11-26T21:03:56.443Z,94834.45
2017-11-26T21:06:24.219Z,94827.45
2017-11-26T21:08:51.943Z,94831.01
2017-11-26T21:11:21.885Z,94830.81
2017-11-26T21:13:50.328Z,94836.10
2017-11-26T21:16:18.207Z,94832.81
2017-11-26T21:18:46.217Z,94838.54
2017-11-26T21:21:15.745Z,94832.95
2017-11-26T21:23:43.557Z,94838.27
2017-11-26T21:26:11.356Z,94837.28
2017-11-26T21:28:39.109Z,94833.92
2017-11-26T21:31:06.868Z,94833.22
2017-11-26T21:33:34.635Z,94833.30
2017-11-26T21:36:02.463Z,94831.00
2017-11-26T21:38:30.160Z,94843.86
2017-11-26T21:40:57.898Z,94840.66
2017-11-26T21:43:26.351Z,94843.00
2017-11-26T21:45:54.120Z,94841.98
2017-11-26T21:48:21.892Z,94839.38
2017-11-26T21:50:49.613Z,94847.50
2017-11-26T21:53:17.438Z,94848.98
2017-11-26T21:55:45.146Z,94849.51
2017-11-26T21:58:12.888Z,94844.20
2017-11-26T22:00:40.720Z,94843.14
2017-11-26T22:03:08.485Z,94837.55
2017-11-26T22:05:36.227Z,94842.25
2017-11-26T22:08:03.931Z,94850.48
2017-11-26T22:10:31.682Z,94846.64
2017-11-26T22:12:59.386Z,94848.86
2017-11-26T22:15:27.212Z,94840.58
2017-11-26T22:17:54.966Z,94835.88
2017-11-26T22:20:22.748Z,94833.58
2017-11-26T22:22:50.622Z,94840.17
2017-11-26T22:25:18.336Z,94840.52
2017-11-26T22:27:46.069Z,94841.32
2017-11-26T22:30:13.808Z,94846.98
2017-11-26T22:32:41.545Z,94842.00
2017-11-26T22:35:09.310Z,94835.05
2017-11-26T22:37:37.196Z,94844.41
2017-11-26T22:40:04.969Z,94841.23
2017-11-26T22:42:32.712Z,94833.64
2017-11-26T22:45:01.625Z,94830.09
2017-11-26T22:47:29.898Z,94833.64
2017-11-26T22:49:57.666Z,94821.59
2017-11-26T22:52:26.451Z,94820.31
2017-11-26T22:54:54.143Z,94818.97
2017-11-26T22:57:21.818Z,94819.72
2017-11-26T22:59:49.582Z,94825.44
2017-11-26T23:02:17.312Z,94823.49
2017-11-26T23:04:45.131Z,94819.50
2017-11-26T23:07:12.831Z,94817.95
2017-11-26T23:09:40.601Z,94819.26
2017-11-26T23:12:08.387Z,94814.70
2017-11-26T23:14:36.160Z,94812.86
2017-11-26T23:17:03.908Z,94806.15
2017-11-26T23:19:31.644Z,94816.30
2017-11-26T23:21:59.346Z,94813.66
2017-11-26T23:24:27.447Z,94813.59
2017-11-26T23:26:55.177Z,94810.44
2017-11-26T23:29:22.854Z,94806.95
2017-11-26T23:31:50.572Z,94800.03
2017-11-26T23:34:18.351Z,94804.79
2017-11-26T23:36:46.180Z,94808.38
2017-11-26T23:39:13.897Z,94805.83
2017-11-26T23:41:41.703Z,94807.67
2017-11-26T23:44:09.405Z,94815.37
2017-11-26T23:46:37.232Z,94805.59
2017-11-26T23:49:05.100Z,94812.01
2017-11-26T23:51:32.772Z,94805.48
2017-11-26T23:54:00.612Z,94806.69
2017-11-26T23:56:28.340Z,94809.66
2017-11-26T23:58:56.155Z,94808.72
